sensor_id;sensor_type;location;lat;lon;timestamp;P1;durP1;ratioP1;P2;durP2;ratioP2
4244;SDS011;2136;48.502;9.194;2024-01-07T00:00:21;28.53;;;17.10;;
4244;SDS011;2136;48.502;9.194;2024-01-07T00:02:50;25.93;;;17.57;;
4244;SDS011;2136;48.502;9.194;2024-01-07T00:05:17;29.30;;;17.80;;
4244;SDS011;2136;48.502;9.194;2024-01-07T00:07:44;27.63;;;17.37;;
4244;SDS011;2136;48.502;9.194;2024-01-07T00:10:10;28.33;;;17.10;;
4244;SDS011;2136;48.502;9.194;2024-01-07T00:12:37;28.90;;;18.53;;
4244;SDS011;2136;48.502;9.194;2024-01-07T00:15:04;27.10;;;18.60;;
4244;SDS011;2136;48.502;9.194;2024-01-07T00:17:31;28.30;;;17.00;;
4244;SDS011;2136;48.502;9.194;2024-01-07T00:20:00;26.20;;;16.57;;
4244;SDS011;2136;48.502;9.194;2024-01-07T00:22:26;28.00;;;17.27;;
4244;SDS011;2136;48.502;9.194;2024-01-07T00:24:53;28.67;;;17.67;;
4244;SDS011;2136;48.502;9.194;2024-01-07T00:27:20;30.17;;;17.00;;
4244;SDS011;2136;48.502;9.194;2024-01-07T00:29:47;35.30;;;18.57;;
4244;SDS011;2136;48.502;9.194;2024-01-07T00:32:14;29.73;;;18.30;;
4244;SDS011;2136;48.502;9.194;2024-01-07T00:34:40;33.80;;;17.57;;
4244;SDS011;2136;48.502;9.194;2024-01-07T00:37:09;30.97;;;17.10;;
4244;SDS011;2136;48.502;9.194;2024-01-07T00:39:35;31.90;;;18.73;;
4244;SDS011;2136;48.502;9.194;2024-01-07T00:42:02;34.17;;;19.17;;
4244;SDS011;2136;48.502;9.194;2024-01-07T00:44:29;26.93;;;16.90;;
4244;SDS011;2136;48.502;9.194;2024-01-07T00:46:56;27.47;;;18.77;;
4244;SDS011;2136;48.502;9.194;2024-01-07T00:49:23;29.13;;;17.40;;
4244;SDS011;2136;48.502;9.194;2024-01-07T00:51:50;25.77;;;17.00;;
4244;SDS011;2136;48.502;9.194;2024-01-07T00:54:18;29.53;;;16.33;;
4244;SDS011;2136;48.502;9.194;2024-01-07T00:56:45;24.17;;;15.80;;
4244;SDS011;2136;48.502;9.194;2024-01-07T00:59:12;27.03;;;17.83;;
4244;SDS011;2136;48.502;9.194;2024-01-07T01:01:38;27.73;;;17.50;;
4244;SDS011;2136;48.502;9.194;2024-01-07T01:04:05;29.90;;;17.73;;
4244;SDS011;2136;48.502;9.194;2024-01-07T01:06:32;27.37;;;17.37;;
4244;SDS011;2136;48.502;9.194;2024-01-07T01:08:59;27.27;;;17.13;;
4244;SDS011;2136;48.502;9.194;2024-01-07T01:11:27;27.60;;;16.77;;
4244;SDS011;2136;48.502;9.194;2024-01-07T01:13:54;30.43;;;17.20;;
4244;SDS011;2136;48.502;9.194;2024-01-07T01:16:20;31.20;;;18.20;;
4244;SDS011;2136;48.502;9.194;2024-01-07T01:18:49;27.40;;;17.53;;
4244;SDS011;2136;48.502;9.194;2024-01-07T01:21:15;27.03;;;16.63;;
4244;SDS011;2136;48.502;9.194;2024-01-07T01:23:43;28.63;;;16.87;;
4244;SDS011;2136;48.502;9.194;2024-01-07T01:26:10;26.47;;;16.83;;
4244;SDS011;2136;48.502;9.194;2024-01-07T01:28:38;27.33;;;16.67;;
4244;SDS011;2136;48.502;9.194;2024-01-07T01:31:05;28.87;;;17.47;;
4244;SDS011;2136;48.502;9.194;2024-01-07T01:33:32;25.00;;;16.20;;
4244;SDS011;2136;48.502;9.194;2024-01-07T01:35:59;26.60;;;16.73;;
4244;SDS011;2136;48.502;9.194;2024-01-07T01:38:30;25.00;;;16.90;;
4244;SDS011;2136;48.502;9.194;2024-01-07T01:40:57;26.80;;;16.30;;
4244;SDS011;2136;48.502;9.194;2024-01-07T01:43:24;27.53;;;17.03;;
4244;SDS011;2136;48.502;9.194;2024-01-07T01:45:53;28.47;;;17.47;;
4244;SDS011;2136;48.502;9.194;2024-01-07T01:48:21;29.27;;;18.33;;
4244;SDS011;2136;48.502;9.194;2024-01-07T01:50:48;25.57;;;16.47;;
4244;SDS011;2136;48.502;9.194;2024-01-07T01:53:15;27.30;;;18.07;;
4244;SDS011;2136;48.502;9.194;2024-01-07T01:55:42;31.70;;;19.70;;
4244;SDS011;2136;48.502;9.194;2024-01-07T01:58:09;27.37;;;17.70;;
4244;SDS011;2136;48.502;9.194;2024-01-07T02:00:36;31.00;;;18.13;;
4244;SDS011;2136;48.502;9.194;2024-01-07T02:03:04;26.57;;;16.40;;
4244;SDS011;2136;48.502;9.194;2024-01-07T02:05:31;30.77;;;17.57;;
4244;SDS011;2136;48.502;9.194;2024-01-07T02:07:58;24.00;;;15.93;;
4244;SDS011;2136;48.502;9.194;2024-01-07T02:10:25;29.87;;;17.43;;
4244;SDS011;2136;48.502;9.194;2024-01-07T02:12:54;26.50;;;16.87;;
4244;SDS011;2136;48.502;9.194;2024-01-07T02:15:20;22.07;;;15.40;;
4244;SDS011;2136;48.502;9.194;2024-01-07T02:17:47;26.27;;;15.67;;
4244;SDS011;2136;48.502;9.194;2024-01-07T02:20:15;29.80;;;17.50;;
4244;SDS011;2136;48.502;9.194;2024-01-07T02:22:42;29.17;;;16.27;;
4244;SDS011;2136;48.502;9.194;2024-01-07T02:25:10;33.23;;;17.30;;
4244;SDS011;2136;48.502;9.194;2024-01-07T02:27:37;27.13;;;15.90;;
4244;SDS011;2136;48.502;9.194;2024-01-07T02:30:04;24.13;;;15.50;;
4244;SDS011;2136;48.502;9.194;2024-01-07T02:32:32;31.70;;;17.27;;
4244;SDS011;2136;48.502;9.194;2024-01-07T02:35:00;28.80;;;17.50;;
4244;SDS011;2136;48.502;9.194;2024-01-07T02:37:27;29.77;;;18.37;;
4244;SDS011;2136;48.502;9.194;2024-01-07T02:39:54;32.90;;;17.80;;
4244;SDS011;2136;48.502;9.194;2024-01-07T02:42:22;33.87;;;19.00;;
4244;SDS011;2136;48.502;9.194;2024-01-07T02:44:49;31.40;;;18.10;;
4244;SDS011;2136;48.502;9.194;2024-01-07T02:47:15;29.03;;;18.07;;
4244;SDS011;2136;48.502;9.194;2024-01-07T02:49:42;25.70;;;15.27;;
4244;SDS011;2136;48.502;9.194;2024-01-07T02:52:09;27.67;;;16.30;;
4244;SDS011;2136;48.502;9.194;2024-01-07T02:54:36;25.10;;;15.40;;
4244;SDS011;2136;48.502;9.194;2024-01-07T02:57:02;28.30;;;16.30;;
4244;SDS011;2136;48.502;9.194;2024-01-07T02:59:30;33.87;;;17.23;;
4244;SDS011;2136;48.502;9.194;2024-01-07T03:01:57;29.40;;;17.20;;
4244;SDS011;2136;48.502;9.194;2024-01-07T03:04:23;24.73;;;15.30;;
4244;SDS011;2136;48.502;9.194;2024-01-07T03:06:50;32.50;;;15.40;;
4244;SDS011;2136;48.502;9.194;2024-01-07T03:09:17;26.70;;;16.20;;
4244;SDS011;2136;48.502;9.194;2024-01-07T03:11:44;26.37;;;15.13;;
4244;SDS011;2136;48.502;9.194;2024-01-07T03:14:11;24.50;;;15.50;;
4244;SDS011;2136;48.502;9.194;2024-01-07T03:16:39;28.20;;;16.40;;
4244;SDS011;2136;48.502;9.194;2024-01-07T03:19:06;23.00;;;15.27;;
4244;SDS011;2136;48.502;9.194;2024-01-07T03:21:32;21.03;;;13.63;;
4244;SDS011;2136;48.502;9.194;2024-01-07T03:23:59;24.93;;;14.97;;
4244;SDS011;2136;48.502;9.194;2024-01-07T03:26:29;27.63;;;16.40;;
4244;SDS011;2136;48.502;9.194;2024-01-07T03:28:57;25.63;;;14.37;;
4244;SDS011;2136;48.502;9.194;2024-01-07T03:31:27;25.13;;;15.80;;
4244;SDS011;2136;48.502;9.194;2024-01-07T03:33:55;27.03;;;15.47;;
4244;SDS011;2136;48.502;9.194;2024-01-07T03:36:22;26.00;;;15.07;;
4244;SDS011;2136;48.502;9.194;2024-01-07T03:38:49;21.97;;;14.17;;
4244;SDS011;2136;48.502;9.194;2024-01-07T03:41:18;28.70;;;14.23;;
4244;SDS011;2136;48.502;9.194;2024-01-07T03:43:45;28.23;;;15.40;;
4244;SDS011;2136;48.502;9.194;2024-01-07T03:46:12;25.37;;;14.13;;
4244;SDS011;2136;48.502;9.194;2024-01-07T03:48:40;26.00;;;13.50;;
4244;SDS011;2136;48.502;9.194;2024-01-07T03:51:08;24.13;;;13.87;;
4244;SDS011;2136;48.502;9.194;2024-01-07T03:53:35;26.70;;;15.10;;
4244;SDS011;2136;48.502;9.194;2024-01-07T03:56:01;24.27;;;13.90;;
4244;SDS011;2136;48.502;9.194;2024-01-07T03:58:28;24.97;;;14.70;;
4244;SDS011;2136;48.502;9.194;2024-01-07T04:00:55;24.47;;;14.00;;
4244;SDS011;2136;48.502;9.194;2024-01-07T04:03:22;23.33;;;14.50;;
4244;SDS011;2136;48.502;9.194;2024-01-07T04:05:49;23.50;;;15.10;;
4244;SDS011;2136;48.502;9.194;2024-01-07T04:08:17;23.00;;;14.77;;
4244;SDS011;2136;48.502;9.194;2024-01-07T04:10:44;25.00;;;13.80;;
4244;SDS011;2136;48.502;9.194;2024-01-07T04:13:10;22.03;;;13.87;;
4244;SDS011;2136;48.502;9.194;2024-01-07T04:15:37;20.77;;;13.90;;
4244;SDS011;2136;48.502;9.194;2024-01-07T04:18:04;20.77;;;13.27;;
4244;SDS011;2136;48.502;9.194;2024-01-07T04:20:31;30.40;;;15.00;;
4244;SDS011;2136;48.502;9.194;2024-01-07T04:22:58;19.37;;;12.47;;
4244;SDS011;2136;48.502;9.194;2024-01-07T04:25:26;23.07;;;14.03;;
4244;SDS011;2136;48.502;9.194;2024-01-07T04:27:53;21.73;;;14.10;;
4244;SDS011;2136;48.502;9.194;2024-01-07T04:30:19;21.73;;;13.47;;
4244;SDS011;2136;48.502;9.194;2024-01-07T04:32:46;24.90;;;15.83;;
4244;SDS011;2136;48.502;9.194;2024-01-07T04:35:13;21.23;;;14.00;;
4244;SDS011;2136;48.502;9.194;2024-01-07T04:37:41;21.13;;;13.37;;
4244;SDS011;2136;48.502;9.194;2024-01-07T04:40:09;24.73;;;13.80;;
4244;SDS011;2136;48.502;9.194;2024-01-07T04:42:38;24.83;;;15.07;;
4244;SDS011;2136;48.502;9.194;2024-01-07T04:45:05;25.40;;;13.60;;
4244;SDS011;2136;48.502;9.194;2024-01-07T04:47:32;27.07;;;14.80;;
4244;SDS011;2136;48.502;9.194;2024-01-07T04:50:00;24.30;;;13.20;;
4244;SDS011;2136;48.502;9.194;2024-01-07T04:52:27;24.90;;;15.30;;
4244;SDS011;2136;48.502;9.194;2024-01-07T04:54:54;24.20;;;14.40;;
4244;SDS011;2136;48.502;9.194;2024-01-07T04:57:21;18.47;;;13.53;;
4244;SDS011;2136;48.502;9.194;2024-01-07T04:59:50;17.60;;;11.67;;
4244;SDS011;2136;48.502;9.194;2024-01-07T05:02:17;20.50;;;12.83;;
4244;SDS011;2136;48.502;9.194;2024-01-07T05:04:44;22.30;;;13.90;;
4244;SDS011;2136;48.502;9.194;2024-01-07T05:07:11;17.03;;;12.30;;
4244;SDS011;2136;48.502;9.194;2024-01-07T05:09:38;19.10;;;12.47;;
4244;SDS011;2136;48.502;9.194;2024-01-07T05:12:05;17.63;;;11.47;;
4244;SDS011;2136;48.502;9.194;2024-01-07T05:14:32;19.40;;;13.13;;
4244;SDS011;2136;48.502;9.194;2024-01-07T05:17:01;15.27;;;11.70;;
4244;SDS011;2136;48.502;9.194;2024-01-07T05:19:27;18.30;;;13.60;;
4244;SDS011;2136;48.502;9.194;2024-01-07T05:21:54;23.60;;;12.13;;
4244;SDS011;2136;48.502;9.194;2024-01-07T05:24:21;17.07;;;11.83;;
4244;SDS011;2136;48.502;9.194;2024-01-07T05:26:48;18.33;;;11.70;;
4244;SDS011;2136;48.502;9.194;2024-01-07T05:29:15;19.47;;;13.30;;
4244;SDS011;2136;48.502;9.194;2024-01-07T05:31:41;16.37;;;11.40;;
4244;SDS011;2136;48.502;9.194;2024-01-07T05:34:10;17.33;;;11.77;;
4244;SDS011;2136;48.502;9.194;2024-01-07T05:36:36;18.63;;;11.70;;
4244;SDS011;2136;48.502;9.194;2024-01-07T05:39:03;17.00;;;12.57;;
4244;SDS011;2136;48.502;9.194;2024-01-07T05:41:31;15.90;;;11.30;;
4244;SDS011;2136;48.502;9.194;2024-01-07T05:43:58;18.27;;;11.13;;
4244;SDS011;2136;48.502;9.194;2024-01-07T05:46:25;16.30;;;11.20;;
4244;SDS011;2136;48.502;9.194;2024-01-07T05:48:52;13.83;;;9.60;;
4244;SDS011;2136;48.502;9.194;2024-01-07T05:51:20;14.60;;;11.00;;
4244;SDS011;2136;48.502;9.194;2024-01-07T05:53:47;15.47;;;10.73;;
4244;SDS011;2136;48.502;9.194;2024-01-07T05:56:14;14.90;;;9.27;;
4244;SDS011;2136;48.502;9.194;2024-01-07T05:58:40;15.33;;;11.00;;
4244;SDS011;2136;48.502;9.194;2024-01-07T06:01:07;13.50;;;10.20;;
4244;SDS011;2136;48.502;9.194;2024-01-07T06:03:34;15.30;;;11.40;;
4244;SDS011;2136;48.502;9.194;2024-01-07T06:06:01;15.07;;;10.93;;
4244;SDS011;2136;48.502;9.194;2024-01-07T06:08:29;16.37;;;11.67;;
4244;SDS011;2136;48.502;9.194;2024-01-07T06:10:56;17.47;;;10.30;;
4244;SDS011;2136;48.502;9.194;2024-01-07T06:13:23;14.20;;;10.67;;
4244;SDS011;2136;48.502;9.194;2024-01-07T06:15:50;15.43;;;10.40;;
4244;SDS011;2136;48.502;9.194;2024-01-07T06:18:17;11.80;;;8.97;;
4244;SDS011;2136;48.502;9.194;2024-01-07T06:20:44;14.03;;;9.57;;
4244;SDS011;2136;48.502;9.194;2024-01-07T06:23:11;13.93;;;10.10;;
4244;SDS011;2136;48.502;9.194;2024-01-07T06:25:39;16.60;;;11.20;;
4244;SDS011;2136;48.502;9.194;2024-01-07T06:28:06;15.90;;;10.13;;
4244;SDS011;2136;48.502;9.194;2024-01-07T06:30:35;19.03;;;10.57;;
4244;SDS011;2136;48.502;9.194;2024-01-07T06:33:02;15.93;;;10.47;;
4244;SDS011;2136;48.502;9.194;2024-01-07T06:35:30;16.03;;;11.63;;
4244;SDS011;2136;48.502;9.194;2024-01-07T06:37:57;14.60;;;10.30;;
4244;SDS011;2136;48.502;9.194;2024-01-07T06:40:23;20.03;;;11.00;;
4244;SDS011;2136;48.502;9.194;2024-01-07T06:42:52;15.17;;;10.80;;
4244;SDS011;2136;48.502;9.194;2024-01-07T06:45:19;15.77;;;10.67;;
4244;SDS011;2136;48.502;9.194;2024-01-07T06:47:46;14.27;;;10.43;;
4244;SDS011;2136;48.502;9.194;2024-01-07T06:50:12;12.80;;;10.43;;
4244;SDS011;2136;48.502;9.194;2024-01-07T06:52:39;14.10;;;10.47;;
4244;SDS011;2136;48.502;9.194;2024-01-07T06:55:07;16.27;;;11.30;;
4244;SDS011;2136;48.502;9.194;2024-01-07T06:57:34;15.87;;;10.77;;
4244;SDS011;2136;48.502;9.194;2024-01-07T07:00:02;18.37;;;10.93;;
4244;SDS011;2136;48.502;9.194;2024-01-07T07:02:30;14.37;;;10.70;;
4244;SDS011;2136;48.502;9.194;2024-01-07T07:04:57;16.70;;;11.30;;
4244;SDS011;2136;48.502;9.194;2024-01-07T07:07:24;14.13;;;10.20;;
4244;SDS011;2136;48.502;9.194;2024-01-07T07:09:50;11.57;;;10.17;;
4244;SDS011;2136;48.502;9.194;2024-01-07T07:12:18;17.57;;;11.33;;
4244;SDS011;2136;48.502;9.194;2024-01-07T07:14:44;15.60;;;11.27;;
4244;SDS011;2136;48.502;9.194;2024-01-07T07:17:13;18.67;;;12.30;;
4244;SDS011;2136;48.502;9.194;2024-01-07T07:19:40;16.90;;;11.60;;
4244;SDS011;2136;48.502;9.194;2024-01-07T07:22:06;18.47;;;12.70;;
4244;SDS011;2136;48.502;9.194;2024-01-07T07:24:33;14.70;;;11.07;;
4244;SDS011;2136;48.502;9.194;2024-01-07T07:27:00;16.00;;;12.03;;
4244;SDS011;2136;48.502;9.194;2024-01-07T07:29:27;17.60;;;11.67;;
4244;SDS011;2136;48.502;9.194;2024-01-07T07:31:53;16.67;;;12.07;;
4244;SDS011;2136;48.502;9.194;2024-01-07T07:34:22;20.00;;;11.83;;
4244;SDS011;2136;48.502;9.194;2024-01-07T07:36:48;17.60;;;11.83;;
4244;SDS011;2136;48.502;9.194;2024-01-07T07:39:15;21.20;;;12.00;;
4244;SDS011;2136;48.502;9.194;2024-01-07T07:41:42;16.80;;;11.73;;
4244;SDS011;2136;48.502;9.194;2024-01-07T07:44:09;17.40;;;12.77;;
4244;SDS011;2136;48.502;9.194;2024-01-07T07:46:35;18.10;;;11.73;;
4244;SDS011;2136;48.502;9.194;2024-01-07T07:49:02;21.27;;;13.87;;
4244;SDS011;2136;48.502;9.194;2024-01-07T07:51:30;18.87;;;12.60;;
4244;SDS011;2136;48.502;9.194;2024-01-07T07:53:57;21.73;;;13.70;;
4244;SDS011;2136;48.502;9.194;2024-01-07T07:56:24;22.90;;;14.10;;
4244;SDS011;2136;48.502;9.194;2024-01-07T07:58:51;16.60;;;12.60;;
4244;SDS011;2136;48.502;9.194;2024-01-07T08:01:17;18.37;;;12.83;;
4244;SDS011;2136;48.502;9.194;2024-01-07T08:03:44;18.00;;;13.87;;
4244;SDS011;2136;48.502;9.194;2024-01-07T08:06:11;21.17;;;14.30;;
4244;SDS011;2136;48.502;9.194;2024-01-07T08:08:39;16.43;;;12.47;;
4244;SDS011;2136;48.502;9.194;2024-01-07T08:11:06;20.17;;;14.00;;
4244;SDS011;2136;48.502;9.194;2024-01-07T08:13:34;21.03;;;14.30;;
4244;SDS011;2136;48.502;9.194;2024-01-07T08:16:02;18.50;;;12.33;;
4244;SDS011;2136;48.502;9.194;2024-01-07T08:18:30;22.23;;;13.93;;
4244;SDS011;2136;48.502;9.194;2024-01-07T08:20:57;18.37;;;13.27;;
4244;SDS011;2136;48.502;9.194;2024-01-07T08:23:24;16.50;;;13.40;;
4244;SDS011;2136;48.502;9.194;2024-01-07T08:25:52;17.40;;;12.87;;
4244;SDS011;2136;48.502;9.194;2024-01-07T08:28:19;20.87;;;14.10;;
4244;SDS011;2136;48.502;9.194;2024-01-07T08:30:47;19.37;;;13.93;;
4244;SDS011;2136;48.502;9.194;2024-01-07T08:33:14;19.30;;;13.93;;
4244;SDS011;2136;48.502;9.194;2024-01-07T08:35:41;20.60;;;15.63;;
4244;SDS011;2136;48.502;9.194;2024-01-07T08:38:08;17.03;;;13.10;;
4244;SDS011;2136;48.502;9.194;2024-01-07T08:40:35;19.30;;;14.10;;
4244;SDS011;2136;48.502;9.194;2024-01-07T08:43:03;17.77;;;12.83;;
4244;SDS011;2136;48.502;9.194;2024-01-07T08:45:30;19.30;;;13.30;;
4244;SDS011;2136;48.502;9.194;2024-01-07T08:47:57;15.20;;;12.13;;
4244;SDS011;2136;48.502;9.194;2024-01-07T08:50:24;41.93;;;24.87;;
4244;SDS011;2136;48.502;9.194;2024-01-07T08:52:50;31.53;;;17.90;;
4244;SDS011;2136;48.502;9.194;2024-01-07T08:55:17;22.50;;;14.13;;
4244;SDS011;2136;48.502;9.194;2024-01-07T08:57:44;18.37;;;12.87;;
4244;SDS011;2136;48.502;9.194;2024-01-07T09:00:15;16.83;;;11.63;;
4244;SDS011;2136;48.502;9.194;2024-01-07T09:02:43;12.20;;;10.00;;
4244;SDS011;2136;48.502;9.194;2024-01-07T09:05:09;12.10;;;8.43;;
4244;SDS011;2136;48.502;9.194;2024-01-07T09:07:37;12.33;;;7.73;;
4244;SDS011;2136;48.502;9.194;2024-01-07T09:10:04;10.33;;;7.50;;
4244;SDS011;2136;48.502;9.194;2024-01-07T09:12:35;12.20;;;7.87;;
4244;SDS011;2136;48.502;9.194;2024-01-07T09:15:02;13.33;;;8.63;;
4244;SDS011;2136;48.502;9.194;2024-01-07T09:17:34;11.73;;;7.87;;
4244;SDS011;2136;48.502;9.194;2024-01-07T09:20:01;11.80;;;8.50;;
4244;SDS011;2136;48.502;9.194;2024-01-07T09:22:30;10.27;;;7.80;;
4244;SDS011;2136;48.502;9.194;2024-01-07T09:24:57;10.07;;;7.67;;
4244;SDS011;2136;48.502;9.194;2024-01-07T09:27:24;9.20;;;7.27;;
4244;SDS011;2136;48.502;9.194;2024-01-07T09:29:51;10.60;;;8.00;;
4244;SDS011;2136;48.502;9.194;2024-01-07T09:32:17;12.07;;;8.27;;
4244;SDS011;2136;48.502;9.194;2024-01-07T09:34:46;17.03;;;9.27;;
4244;SDS011;2136;48.502;9.194;2024-01-07T09:37:13;16.93;;;9.73;;
4244;SDS011;2136;48.502;9.194;2024-01-07T09:39:40;12.13;;;7.13;;
4244;SDS011;2136;48.502;9.194;2024-01-07T09:42:07;10.23;;;7.50;;
4244;SDS011;2136;48.502;9.194;2024-01-07T09:44:38;12.53;;;8.97;;
4244;SDS011;2136;48.502;9.194;2024-01-07T09:47:05;12.23;;;9.10;;
4244;SDS011;2136;48.502;9.194;2024-01-07T09:49:36;14.67;;;9.30;;
4244;SDS011;2136;48.502;9.194;2024-01-07T09:52:04;13.37;;;8.30;;
4244;SDS011;2136;48.502;9.194;2024-01-07T09:54:31;12.30;;;8.87;;
4244;SDS011;2136;48.502;9.194;2024-01-07T09:57:00;14.33;;;9.23;;
4244;SDS011;2136;48.502;9.194;2024-01-07T09:59:28;10.60;;;7.80;;
4244;SDS011;2136;48.502;9.194;2024-01-07T10:01:55;15.73;;;8.93;;
4244;SDS011;2136;48.502;9.194;2024-01-07T10:04:22;18.30;;;8.90;;
4244;SDS011;2136;48.502;9.194;2024-01-07T10:06:50;11.63;;;8.40;;
4244;SDS011;2136;48.502;9.194;2024-01-07T10:09:19;12.13;;;8.57;;
4244;SDS011;2136;48.502;9.194;2024-01-07T10:11:50;10.70;;;8.20;;
4244;SDS011;2136;48.502;9.194;2024-01-07T10:14:17;13.43;;;9.70;;
4244;SDS011;2136;48.502;9.194;2024-01-07T10:16:44;9.67;;;7.63;;
4244;SDS011;2136;48.502;9.194;2024-01-07T10:19:11;9.67;;;6.80;;
4244;SDS011;2136;48.502;9.194;2024-01-07T10:21:46;7.20;;;5.50;;
4244;SDS011;2136;48.502;9.194;2024-01-07T10:24:13;8.93;;;6.27;;
4244;SDS011;2136;48.502;9.194;2024-01-07T10:26:41;8.80;;;5.93;;
4244;SDS011;2136;48.502;9.194;2024-01-07T10:29:08;8.73;;;6.00;;
4244;SDS011;2136;48.502;9.194;2024-01-07T10:31:35;9.67;;;6.30;;
4244;SDS011;2136;48.502;9.194;2024-01-07T10:34:06;7.70;;;5.60;;
4244;SDS011;2136;48.502;9.194;2024-01-07T10:36:33;8.23;;;6.00;;
4244;SDS011;2136;48.502;9.194;2024-01-07T10:39:00;8.10;;;5.83;;
4244;SDS011;2136;48.502;9.194;2024-01-07T10:41:27;11.93;;;7.20;;
4244;SDS011;2136;48.502;9.194;2024-01-07T10:43:56;13.23;;;8.20;;
4244;SDS011;2136;48.502;9.194;2024-01-07T10:46:24;13.10;;;8.40;;
4244;SDS011;2136;48.502;9.194;2024-01-07T10:48:58;14.77;;;8.63;;
4244;SDS011;2136;48.502;9.194;2024-01-07T10:51:27;11.17;;;7.47;;
4244;SDS011;2136;48.502;9.194;2024-01-07T10:53:56;8.93;;;7.20;;
4244;SDS011;2136;48.502;9.194;2024-01-07T10:56:23;10.10;;;7.40;;
4244;SDS011;2136;48.502;9.194;2024-01-07T10:58:51;8.60;;;6.30;;
4244;SDS011;2136;48.502;9.194;2024-01-07T11:01:20;9.30;;;6.80;;
4244;SDS011;2136;48.502;9.194;2024-01-07T11:03:51;10.80;;;6.63;;
4244;SDS011;2136;48.502;9.194;2024-01-07T11:06:25;11.57;;;7.00;;
4244;SDS011;2136;48.502;9.194;2024-01-07T11:08:59;11.37;;;6.83;;
4244;SDS011;2136;48.502;9.194;2024-01-07T11:11:35;12.40;;;7.30;;
4244;SDS011;2136;48.502;9.194;2024-01-07T11:14:07;13.00;;;7.60;;
4244;SDS011;2136;48.502;9.194;2024-01-07T11:17:01;11.00;;;7.73;;
4244;SDS011;2136;48.502;9.194;2024-01-07T11:19:29;11.80;;;8.07;;
4244;SDS011;2136;48.502;9.194;2024-01-07T11:24:48;12.30;;;8.20;;
4244;SDS011;2136;48.502;9.194;2024-01-07T11:27:15;11.02;;;8.65;;
4244;SDS011;2136;48.502;9.194;2024-01-07T11:29:42;12.00;;;8.50;;
4244;SDS011;2136;48.502;9.194;2024-01-07T11:32:12;13.10;;;7.83;;
4244;SDS011;2136;48.502;9.194;2024-01-07T11:34:42;10.87;;;8.23;;
4244;SDS011;2136;48.502;9.194;2024-01-07T11:37:13;11.07;;;8.37;;
4244;SDS011;2136;48.502;9.194;2024-01-07T11:39:41;9.50;;;7.37;;
4244;SDS011;2136;48.502;9.194;2024-01-07T11:42:09;11.07;;;7.50;;
4244;SDS011;2136;48.502;9.194;2024-01-07T11:44:37;13.83;;;7.97;;
4244;SDS011;2136;48.502;9.194;2024-01-07T11:47:04;9.67;;;7.80;;
4244;SDS011;2136;48.502;9.194;2024-01-07T11:49:32;9.67;;;8.20;;
4244;SDS011;2136;48.502;9.194;2024-01-07T11:51:59;15.27;;;8.70;;
4244;SDS011;2136;48.502;9.194;2024-01-07T11:54:27;11.70;;;8.33;;
4244;SDS011;2136;48.502;9.194;2024-01-07T11:56:55;11.70;;;8.13;;
4244;SDS011;2136;48.502;9.194;2024-01-07T11:59:22;14.33;;;8.37;;
4244;SDS011;2136;48.502;9.194;2024-01-07T12:01:49;11.70;;;8.30;;
4244;SDS011;2136;48.502;9.194;2024-01-07T12:04:16;10.37;;;7.77;;
4244;SDS011;2136;48.502;9.194;2024-01-07T12:06:44;12.23;;;8.50;;
4244;SDS011;2136;48.502;9.194;2024-01-07T12:09:12;11.03;;;7.00;;
4244;SDS011;2136;48.502;9.194;2024-01-07T12:11:39;13.93;;;8.70;;
4244;SDS011;2136;48.502;9.194;2024-01-07T12:14:06;12.63;;;8.60;;
4244;SDS011;2136;48.502;9.194;2024-01-07T12:16:34;12.07;;;7.87;;
4244;SDS011;2136;48.502;9.194;2024-01-07T12:19:01;13.43;;;7.67;;
4244;SDS011;2136;48.502;9.194;2024-01-07T12:21:28;11.40;;;7.70;;
4244;SDS011;2136;48.502;9.194;2024-01-07T12:23:57;10.63;;;7.37;;
4244;SDS011;2136;48.502;9.194;2024-01-07T12:26:25;10.90;;;8.00;;
4244;SDS011;2136;48.502;9.194;2024-01-07T12:28:53;11.63;;;7.90;;
4244;SDS011;2136;48.502;9.194;2024-01-07T12:31:20;12.30;;;8.37;;
4244;SDS011;2136;48.502;9.194;2024-01-07T12:33:47;16.30;;;10.33;;
4244;SDS011;2136;48.502;9.194;2024-01-07T12:36:14;13.10;;;8.93;;
4244;SDS011;2136;48.502;9.194;2024-01-07T12:38:41;12.13;;;7.87;;
4244;SDS011;2136;48.502;9.194;2024-01-07T12:41:09;11.43;;;8.27;;
4244;SDS011;2136;48.502;9.194;2024-01-07T12:43:36;13.20;;;8.47;;
4244;SDS011;2136;48.502;9.194;2024-01-07T12:46:03;12.17;;;8.23;;
4244;SDS011;2136;48.502;9.194;2024-01-07T12:48:30;10.97;;;8.23;;
4244;SDS011;2136;48.502;9.194;2024-01-07T12:50:57;11.43;;;7.53;;
4244;SDS011;2136;48.502;9.194;2024-01-07T12:53:24;10.27;;;7.87;;
4244;SDS011;2136;48.502;9.194;2024-01-07T12:55:52;10.80;;;6.83;;
4244;SDS011;2136;48.502;9.194;2024-01-07T12:58:20;9.47;;;7.30;;
4244;SDS011;2136;48.502;9.194;2024-01-07T13:00:47;15.17;;;7.43;;
4244;SDS011;2136;48.502;9.194;2024-01-07T13:03:14;8.57;;;6.40;;
4244;SDS011;2136;48.502;9.194;2024-01-07T13:05:43;10.10;;;6.70;;
4244;SDS011;2136;48.502;9.194;2024-01-07T13:08:11;9.80;;;6.30;;
4244;SDS011;2136;48.502;9.194;2024-01-07T13:10:38;8.13;;;6.60;;
4244;SDS011;2136;48.502;9.194;2024-01-07T13:13:05;9.15;;;7.30;;
4244;SDS011;2136;48.502;9.194;2024-01-07T13:15:33;8.23;;;6.40;;
4244;SDS011;2136;48.502;9.194;2024-01-07T13:18:00;11.10;;;7.40;;
4244;SDS011;2136;48.502;9.194;2024-01-07T13:20:27;13.30;;;7.13;;
4244;SDS011;2136;48.502;9.194;2024-01-07T13:22:54;7.00;;;6.20;;
4244;SDS011;2136;48.502;9.194;2024-01-07T13:25:21;9.30;;;6.90;;
4244;SDS011;2136;48.502;9.194;2024-01-07T13:27:48;10.30;;;7.03;;
4244;SDS011;2136;48.502;9.194;2024-01-07T13:30:15;7.20;;;6.23;;
4244;SDS011;2136;48.502;9.194;2024-01-07T13:32:43;9.03;;;7.47;;
4244;SDS011;2136;48.502;9.194;2024-01-07T13:35:10;11.57;;;8.50;;
4244;SDS011;2136;48.502;9.194;2024-01-07T13:37:38;14.43;;;7.57;;
4244;SDS011;2136;48.502;9.194;2024-01-07T13:40:07;9.23;;;7.37;;
4244;SDS011;2136;48.502;9.194;2024-01-07T13:42:35;12.37;;;8.10;;
4244;SDS011;2136;48.502;9.194;2024-01-07T13:45:02;12.20;;;7.27;;
4244;SDS011;2136;48.502;9.194;2024-01-07T13:47:30;10.87;;;8.17;;
4244;SDS011;2136;48.502;9.194;2024-01-07T13:49:58;11.80;;;8.47;;
4244;SDS011;2136;48.502;9.194;2024-01-07T13:52:25;13.63;;;8.40;;
4244;SDS011;2136;48.502;9.194;2024-01-07T13:54:54;9.97;;;8.03;;
4244;SDS011;2136;48.502;9.194;2024-01-07T13:57:22;13.90;;;8.53;;
4244;SDS011;2136;48.502;9.194;2024-01-07T13:59:49;13.30;;;9.40;;
4244;SDS011;2136;48.502;9.194;2024-01-07T14:02:15;11.37;;;8.27;;
4244;SDS011;2136;48.502;9.194;2024-01-07T14:04:44;12.27;;;8.90;;
4244;SDS011;2136;48.502;9.194;2024-01-07T14:07:12;13.97;;;8.90;;
4244;SDS011;2136;48.502;9.194;2024-01-07T14:09:39;15.10;;;10.47;;
4244;SDS011;2136;48.502;9.194;2024-01-07T14:12:07;12.67;;;8.90;;
4244;SDS011;2136;48.502;9.194;2024-01-07T14:14:34;13.10;;;9.00;;
4244;SDS011;2136;48.502;9.194;2024-01-07T14:17:01;13.03;;;9.70;;
4244;SDS011;2136;48.502;9.194;2024-01-07T14:19:27;12.17;;;9.03;;
4244;SDS011;2136;48.502;9.194;2024-01-07T14:21:54;11.47;;;9.23;;
4244;SDS011;2136;48.502;9.194;2024-01-07T14:24:22;17.07;;;9.67;;
4244;SDS011;2136;48.502;9.194;2024-01-07T14:26:49;16.43;;;10.67;;
4244;SDS011;2136;48.502;9.194;2024-01-07T14:29:16;21.40;;;10.60;;
4244;SDS011;2136;48.502;9.194;2024-01-07T14:31:43;18.47;;;11.00;;
4244;SDS011;2136;48.502;9.194;2024-01-07T14:34:10;17.13;;;11.27;;
4244;SDS011;2136;48.502;9.194;2024-01-07T14:36:39;20.23;;;12.50;;
4244;SDS011;2136;48.502;9.194;2024-01-07T14:39:06;19.40;;;13.40;;
4244;SDS011;2136;48.502;9.194;2024-01-07T14:41:35;15.60;;;10.93;;
4244;SDS011;2136;48.502;9.194;2024-01-07T14:44:02;15.13;;;10.90;;
4244;SDS011;2136;48.502;9.194;2024-01-07T14:46:29;20.17;;;12.27;;
4244;SDS011;2136;48.502;9.194;2024-01-07T14:48:55;15.90;;;10.30;;
4244;SDS011;2136;48.502;9.194;2024-01-07T14:51:22;19.50;;;11.57;;
4244;SDS011;2136;48.502;9.194;2024-01-07T14:53:49;17.60;;;11.17;;
4244;SDS011;2136;48.502;9.194;2024-01-07T14:56:16;22.75;;;14.57;;